createdAt,value
2018-05-02T00:00:19.079Z,72.50
2018-05-02T00:01:19.060Z,72.60
2018-05-02T00:02:19.339Z,72.22
2018-05-02T00:03:19.018Z,71.27
2018-05-02T00:04:19.041Z,71.17
2018-05-02T00:05:19.270Z,70.89
2018-05-02T00:06:19.193Z,70.61
2018-05-02T00:07:18.915Z,69.95
2018-05-02T00:08:18.896Z,69.47
2018-05-02T00:09:19.170Z,69.28
2018-05-02T00:10:20.295Z,69.38
2018-05-02T00:11:18.818Z,68.24
2018-05-02T00:12:18.796Z,68.40
2018-05-02T00:13:18.774Z,67.20
2018-05-02T00:14:18.752Z,66.44
2018-05-02T00:15:18.724Z,65.84
2018-05-02T00:16:19.048Z,65.28
2018-05-02T00:17:18.683Z,65.56
2018-05-02T00:18:18.652Z,64.99
2018-05-02T00:19:18.632Z,65.09
2018-05-02T00:20:18.601Z,64.33
2018-05-02T00:21:18.781Z,64.23
2018-05-02T00:22:18.862Z,64.52
2018-05-02T00:23:18.831Z,64.14
2018-05-02T00:24:18.515Z,63.95
2018-05-02T00:25:18.486Z,63.95
2018-05-02T00:26:18.464Z,64.33
2018-05-02T00:27:18.450Z,64.52
2018-05-02T00:28:18.665Z,64.71
2018-05-02T00:29:18.692Z,64.52
2018-05-02T00:30:18.360Z,62.25
2018-05-02T00:31:18.339Z,61.21
2018-05-02T00:32:18.319Z,61.02
2018-05-02T00:33:19.495Z,61.02
2018-05-02T00:34:18.317Z,60.64
2018-05-02T00:35:18.555Z,60.83
2018-05-02T00:36:18.213Z,60.74
2018-05-02T00:37:18.200Z,60.64
2018-05-02T00:38:18.170Z,60.64
2018-05-02T00:39:18.155Z,60.45
2018-05-02T00:40:18.277Z,59.50
2018-05-02T00:41:18.396Z,59.88
2018-05-02T00:42:18.070Z,60.64
2018-05-02T00:43:18.051Z,60.55
2018-05-02T00:44:18.032Z,60.96
2018-05-02T00:45:18.005Z,61.68
2018-05-02T00:46:19.241Z,61.58
2018-05-02T00:47:18.257Z,61.40
2018-05-02T00:48:17.927Z,61.68
2018-05-02T00:49:17.899Z,61.61
2018-05-02T00:50:17.874Z,61.87
2018-05-02T00:51:17.858Z,61.21
2018-05-02T00:52:17.879Z,61.68
2018-05-02T00:53:18.108Z,61.77
2018-05-02T00:54:17.779Z,61.49
2018-05-02T00:55:17.762Z,61.87
2018-05-02T00:56:17.729Z,61.30
2018-05-02T00:57:17.707Z,61.49
2018-05-02T00:58:17.938Z,61.40
2018-05-02T00:59:17.955Z,61.21
2018-05-02T01:00:17.630Z,61.77
2018-05-02T01:01:17.610Z,60.74
2018-05-02T01:02:18.779Z,60.64
2018-05-02T01:03:17.556Z,59.79
2018-05-02T01:04:17.588Z,59.98
2018-05-02T01:05:17.513Z,59.60
2018-05-02T01:06:17.787Z,60.64
2018-05-02T01:07:17.465Z,59.88
2018-05-02T01:08:17.431Z,60.17
2018-05-02T01:09:17.420Z,60.26
2018-05-02T01:10:17.439Z,59.69
2018-05-02T01:11:17.375Z,59.60
2018-05-02T01:12:17.333Z,59.22
2018-05-02T01:13:17.611Z,59.31
2018-05-02T01:14:17.289Z,59.50
2018-05-02T01:15:17.261Z,59.69
2018-05-02T01:16:17.288Z,59.50
2018-05-02T01:17:17.211Z,59.12
2018-05-02T01:18:17.188Z,59.22
2018-05-02T01:19:17.267Z,59.12
2018-05-02T01:20:17.437Z,58.56
2018-05-02T01:21:17.114Z,58.56
2018-05-02T01:22:17.142Z,59.03
2018-05-02T01:23:17.062Z,57.99
2018-05-02T01:24:17.046Z,57.14
2018-05-02T01:25:17.012Z,56.57
2018-05-02T01:26:16.989Z,56.57
2018-05-02T01:27:17.265Z,56.57
2018-05-02T01:28:16.989Z,56.76
2018-05-02T01:29:16.915Z,56.54
2018-05-02T01:30:16.899Z,56.54
2018-05-02T01:31:16.863Z,56.54
2018-05-02T01:32:16.842Z,56.67
2018-05-02T01:33:16.818Z,56.20
2018-05-02T01:34:17.139Z,56.01
2018-05-02T01:35:16.771Z,56.29
2018-05-02T01:36:16.753Z,56.10
2018-05-02T01:37:16.715Z,56.10
2018-05-02T01:38:16.699Z,56.10
2018-05-02T01:39:16.675Z,56.48
2018-05-02T01:40:16.689Z,56.95
2018-05-02T01:41:16.918Z,57.23
2018-05-02T01:42:16.599Z,57.99
2018-05-02T01:43:16.567Z,58.09
2018-05-02T01:44:16.545Z,57.80
2018-05-02T01:45:16.516Z,57.99
2018-05-02T01:46:17.744Z,57.42
2018-05-02T01:47:16.472Z,57.90
2018-05-02T01:48:16.448Z,58.09
2018-05-02T01:49:16.427Z,58.28
2018-05-02T01:50:16.403Z,58.75
2018-05-02T01:51:16.378Z,59.50
2018-05-02T01:52:16.404Z,59.50
2018-05-02T01:53:16.325Z,59.50
2018-05-02T01:54:16.602Z,59.79
2018-05-02T01:55:16.282Z,59.50
2018-05-02T01:56:16.252Z,59.98
2018-05-02T01:57:16.231Z,59.60
2018-05-02T01:58:16.252Z,60.36
2018-05-02T01:59:16.177Z,59.79
2018-05-02T02:00:16.459Z,60.07
2018-05-02T02:01:16.129Z,59.88
2018-05-02T02:02:16.103Z,59.98
2018-05-02T02:03:16.190Z,60.64
2018-05-02T02:04:16.110Z,60.55
2018-05-02T02:05:16.018Z,60.45
2018-05-02T02:06:15.996Z,60.07
2018-05-02T02:07:15.969Z,59.88
2018-05-02T02:08:15.950Z,60.07
2018-05-02T02:09:15.918Z,59.79
2018-05-02T02:10:15.951Z,59.12
2018-05-02T02:11:15.870Z,58.65
2018-05-02T02:12:16.147Z,58.37
2018-05-02T02:13:15.820Z,58.56
2018-05-02T02:14:15.801Z,59.03
2018-05-02T02:15:15.778Z,59.50
2018-05-02T02:16:15.853Z,59.03
2018-05-02T02:17:15.722Z,59.22
2018-05-02T02:18:16.000Z,59.79
2018-05-02T02:19:15.674Z,59.88
2018-05-02T02:20:15.643Z,59.03
2018-05-02T02:21:15.620Z,60.07
2018-05-02T02:22:15.746Z,59.88
2018-05-02T02:23:15.572Z,60.26
2018-05-02T02:24:15.848Z,60.17
2018-05-02T02:25:15.520Z,59.79
2018-05-02T02:26:15.500Z,59.22
2018-05-02T02:27:15.472Z,59.31
2018-05-02T02:28:15.594Z,59.50
2018-05-02T02:29:15.429Z,59.79
2018-05-02T02:30:15.400Z,60.07
2018-05-02T02:31:15.674Z,60.07
2018-05-02T02:32:15.349Z,59.31
2018-05-02T02:33:15.319Z,59.50
2018-05-02T02:34:15.455Z,59.03
2018-05-02T02:35:16.559Z,59.79
2018-05-02T02:36:15.259Z,59.03
2018-05-02T02:37:15.230Z,59.12
2018-05-02T02:38:15.504Z,60.07
2018-05-02T02:39:15.182Z,59.60
2018-05-02T02:40:15.255Z,59.60
2018-05-02T02:41:15.130Z,59.50
2018-05-02T02:42:15.112Z,59.69
2018-05-02T02:43:15.127Z,59.41
2018-05-02T02:44:15.051Z,59.50
2018-05-02T02:45:16.669Z,59.03
2018-05-02T02:46:16.252Z,60.74
2018-05-02T02:47:14.977Z,61.11
2018-05-02T02:48:14.952Z,61.21
2018-05-02T02:49:14.928Z,61.68
2018-05-02T02:50:14.904Z,62.25
2018-05-02T02:51:14.876Z,62.15
2018-05-02T02:52:16.408Z,63.10
2018-05-02T02:53:14.891Z,63.20
2018-05-02T02:54:14.809Z,63.76
2018-05-02T02:55:14.860Z,64.23
2018-05-02T02:56:14.752Z,64.04
2018-05-02T02:57:14.728Z,65.28
2018-05-02T02:58:14.755Z,65.84
2018-05-02T02:59:15.076Z,67.45
2018-05-02T03:00:14.652Z,68.43
2018-05-02T03:01:14.725Z,69.09
2018-05-02T03:02:14.602Z,70.14
2018-05-02T03:03:14.577Z,70.23
2018-05-02T03:04:14.601Z,69.76
2018-05-02T03:05:14.537Z,70.04
2018-05-02T03:07:14.778Z,69.95
2018-05-02T03:08:14.453Z,69.66
2018-05-02T03:09:14.430Z,69.38
2018-05-02T03:10:14.451Z,68.81
2018-05-02T03:11:14.376Z,69.19
2018-05-02T03:12:14.402Z,68.77
2018-05-02T03:13:14.688Z,68.30
2018-05-02T03:14:14.309Z,68.12
2018-05-02T03:15:14.283Z,67.64
2018-05-02T03:16:14.405Z,66.69
2018-05-02T03:17:14.225Z,66.79
2018-05-02T03:18:14.202Z,66.03
2018-05-02T03:19:14.487Z,66.73
2018-05-02T03:20:14.153Z,66.69
2018-05-02T03:21:14.126Z,66.60
2018-05-02T03:22:14.353Z,66.60
2018-05-02T03:23:14.068Z,66.13
2018-05-02T03:24:14.041Z,65.37
2018-05-02T03:25:14.318Z,65.09
2018-05-02T03:26:13.992Z,65.37
2018-05-02T03:27:13.977Z,64.99
2018-05-02T03:28:14.006Z,63.76
2018-05-02T03:29:13.922Z,62.91
2018-05-02T03:30:13.900Z,62.72
2018-05-02T03:31:14.170Z,63.10
2018-05-02T03:32:13.844Z,64.26
2018-05-02T03:33:13.823Z,64.45
2018-05-02T03:34:13.845Z,65.69
2018-05-02T03:35:13.777Z,65.88
2018-05-02T03:36:13.746Z,66.63
2018-05-02T03:37:14.023Z,66.73
2018-05-02T03:38:14.948Z,67.01
2018-05-02T03:39:13.680Z,67.58
2018-05-02T03:40:13.852Z,67.77
2018-05-02T03:41:13.623Z,67.01
2018-05-02T03:42:13.601Z,66.06
2018-05-02T03:43:13.874Z,65.88
2018-05-02T03:44:13.549Z,66.35
2018-05-02T03:45:13.530Z,65.59
2018-05-02T03:46:13.550Z,65.78
2018-05-02T03:47:13.481Z,66.25
2018-05-02T03:48:13.458Z,67.11
2018-05-02T03:49:13.433Z,66.73
2018-05-02T03:50:13.701Z,66.73
2018-05-02T03:51:13.384Z,66.73
2018-05-02T03:52:13.401Z,67.01
2018-05-02T03:53:13.328Z,67.39
2018-05-02T03:54:13.314Z,66.53
2018-05-02T03:55:13.284Z,67.11
2018-05-02T03:56:13.261Z,66.92
2018-05-02T03:57:13.542Z,67.30
2018-05-02T03:58:13.255Z,66.53
2018-05-02T03:59:13.182Z,66.25
2018-05-02T04:00:13.163Z,65.66
2018-05-02T04:01:13.133Z,64.52
2018-05-02T04:02:13.107Z,64.90
2018-05-02T04:03:13.084Z,63.29
2018-05-02T04:04:14.710Z,62.25
2018-05-02T04:05:13.035Z,62.53
2018-05-02T04:06:13.010Z,62.53
2018-05-02T04:07:12.992Z,61.58
2018-05-02T04:08:12.965Z,61.11
2018-05-02T04:09:13.041Z,60.45
2018-05-02T04:10:12.967Z,59.98
2018-05-02T04:11:13.192Z,60.07
2018-05-02T04:12:12.864Z,59.22
2018-05-02T04:13:12.845Z,59.12
2018-05-02T04:14:12.817Z,58.37
2018-05-02T04:15:12.996Z,58.18
2018-05-02T04:16:12.818Z,57.52
2018-05-02T04:17:13.749Z,56.48
2018-05-02T04:18:15.753Z,56.95
2018-05-02T04:19:14.664Z,56.67
2018-05-02T04:20:12.670Z,55.91
2018-05-02T04:21:12.656Z,56.29
2018-05-02T04:22:12.672Z,56.67
2018-05-02T04:23:12.686Z,56.29
2018-05-02T04:24:12.579Z,55.91
2018-05-02T04:25:12.856Z,56.67
2018-05-02T04:26:12.625Z,56.57
2018-05-02T04:27:12.503Z,56.76
2018-05-02T04:28:12.592Z,56.85
2018-05-02T04:29:12.510Z,56.20
2018-05-02T04:30:12.438Z,56.10
2018-05-02T04:31:12.403Z,56.38
2018-05-02T04:32:12.713Z,55.82
2018-05-02T04:33:12.470Z,55.34
2018-05-02T04:34:12.570Z,55.34
2018-05-02T04:35:12.333Z,55.65
2018-05-02T04:36:12.304Z,56.51
2018-05-02T04:37:12.262Z,55.84
2018-05-02T04:38:12.535Z,55.84
2018-05-02T04:39:12.226Z,56.22
2018-05-02T04:40:12.385Z,56.13
2018-05-02T04:41:12.224Z,56.13
2018-05-02T04:42:12.140Z,56.03
2018-05-02T04:43:12.120Z,56.32
2018-05-02T04:44:12.390Z,55.75
2018-05-02T04:45:12.068Z,56.51
2018-05-02T04:46:12.245Z,56.41
2018-05-02T04:47:12.034Z,56.32
2018-05-02T04:48:11.998Z,56.03
2018-05-02T04:49:11.979Z,56.79
2018-05-02T04:50:11.978Z,57.17
2018-05-02T04:51:11.942Z,58.11
2018-05-02T04:52:11.947Z,58.21
2018-05-02T04:53:11.878Z,59.34
2018-05-02T04:54:11.854Z,59.91
2018-05-02T04:55:11.833Z,59.94
2018-05-02T04:58:13.260Z,60.32
2018-05-02T04:59:12.707Z,60.03
2018-05-02T05:00:12.704Z,60.03
2018-05-02T05:01:11.684Z,60.13
2018-05-02T05:02:11.661Z,60.03
2018-05-02T05:03:11.645Z,60.61
2018-05-02T05:04:13.167Z,60.51
2018-05-02T05:05:11.608Z,60.13
2018-05-02T05:06:11.575Z,59.66
2018-05-02T05:07:11.552Z,60.13
2018-05-02T05:08:11.525Z,60.51
2018-05-02T05:09:11.504Z,60.89
2018-05-02T05:10:11.830Z,60.89
2018-05-02T05:11:12.004Z,61.77
2018-05-02T05:12:11.504Z,62.05
2018-05-02T05:13:11.411Z,62.43
2018-05-02T05:14:11.388Z,62.43
2018-05-02T05:15:11.480Z,62.43
2018-05-02T05:16:11.557Z,63.39
2018-05-02T05:17:11.617Z,63.57
2018-05-02T05:18:11.290Z,63.85
2018-05-02T05:19:11.282Z,63.39
2018-05-02T05:20:11.241Z,63.85
2018-05-02T05:21:11.234Z,63.39
2018-05-02T05:22:11.248Z,63.10
2018-05-02T05:23:11.182Z,63.48
2018-05-02T05:24:11.454Z,63.29
2018-05-02T05:25:11.133Z,63.29
2018-05-02T05:26:11.117Z,63.10
2018-05-02T05:27:11.092Z,62.94
2018-05-02T05:28:11.129Z,64.55
2018-05-02T05:29:11.041Z,65.12
2018-05-02T05:30:11.025Z,65.22
2018-05-02T05:31:11.311Z,65.50
2018-05-02T05:32:10.973Z,65.78
2018-05-02T05:33:10.958Z,66.45
2018-05-02T05:34:10.973Z,66.54
2018-05-02T05:35:10.994Z,67.87
2018-05-02T05:36:10.890Z,69.20
2018-05-02T05:37:10.859Z,69.29
2018-05-02T05:38:11.540Z,68.82
2018-05-02T05:40:12.059Z,69.67
2018-05-02T05:41:10.775Z,69.04
2018-05-02T05:42:10.746Z,69.80
2018-05-02T05:43:10.728Z,71.03
2018-05-02T05:44:10.809Z,73.12
2018-05-02T05:45:10.991Z,73.88
2018-05-02T05:46:10.709Z,73.69
2018-05-02T05:47:10.644Z,73.88
2018-05-02T05:48:10.627Z,75.11
2018-05-02T05:49:10.602Z,75.78
2018-05-02T05:50:10.579Z,76.63
2018-05-02T05:51:10.553Z,76.34
2018-05-02T05:52:10.881Z,76.63
2018-05-02T05:53:10.509Z,76.67
2018-05-02T05:54:10.608Z,76.67
2018-05-02T05:55:10.469Z,78.47
2018-05-02T05:56:10.504Z,76.76
2018-05-02T05:57:10.489Z,76.29
2018-05-02T05:58:10.451Z,75.91
2018-05-02T05:59:10.686Z,77.24
2018-05-02T06:00:10.359Z,78.47
2018-05-02T06:01:10.662Z,78.56
2018-05-02T06:02:10.380Z,78.51
2018-05-02T06:03:10.300Z,77.84
2018-05-02T06:04:10.284Z,82.03
2018-05-02T06:05:10.574Z,81.74
2018-05-02T06:06:10.242Z,80.22
2018-05-02T06:07:10.220Z,87.01
2018-05-02T06:08:10.301Z,82.45
2018-05-02T06:09:10.178Z,83.78
2018-05-02T06:10:10.149Z,82.07
2018-05-02T06:11:10.468Z,81.44
2018-05-02T06:12:10.309Z,80.40
2018-05-02T06:13:10.094Z,84.39
2018-05-02T06:14:10.122Z,84.48
2018-05-02T06:15:10.047Z,85.53
2018-05-02T06:16:10.025Z,87.66
2018-05-02T06:17:10.307Z,90.33
2018-05-02T06:18:09.989Z,89.94
2018-05-02T06:19:09.973Z,91.66
2018-05-02T06:20:11.211Z,92.13
2018-05-02T06:21:09.924Z,94.93
2018-05-02T06:22:09.916Z,94.65
2018-05-02T06:23:10.219Z,97.03
2018-05-02T06:24:09.870Z,97.27
2018-05-02T06:25:09.947Z,95.56
2018-05-02T06:26:09.952Z,92.70
2018-05-02T06:27:09.822Z,89.70
2018-05-02T06:28:09.799Z,87.32
2018-05-02T06:29:10.069Z,86.08
2018-05-02T06:30:09.774Z,89.22
2018-05-02T06:31:09.735Z,85.84
2018-05-02T06:32:09.814Z,79.17
2018-05-02T06:33:09.729Z,77.74
2018-05-02T06:34:09.680Z,76.59
2018-05-02T06:35:09.957Z,70.50
2018-05-02T06:36:09.658Z,69.07
2018-05-02T06:37:09.635Z,70.59
2018-05-02T06:38:09.672Z,63.76
2018-05-02T06:39:09.590Z,62.52
2018-05-02T06:40:09.575Z,61.86
2018-05-02T06:41:09.543Z,61.57
2018-05-02T06:42:09.831Z,60.24
2018-05-02T06:43:09.507Z,59.57
2018-05-02T06:44:09.542Z,58.81
2018-05-02T06:45:09.481Z,58.24
2018-05-02T06:46:09.457Z,58.24
2018-05-02T06:47:09.435Z,58.52
2018-05-02T06:48:09.420Z,58.65
2018-05-02T06:49:09.713Z,57.03
2018-05-02T06:50:09.434Z,56.84
2018-05-02T06:51:09.365Z,57.41
2018-05-02T06:52:09.349Z,57.60
2018-05-02T06:53:09.333Z,57.79
2018-05-02T06:54:09.311Z,57.98
2018-05-02T06:55:09.294Z,56.74
2018-05-02T06:56:09.628Z,58.17
2018-05-02T06:57:09.262Z,56.65
2018-05-02T06:58:09.243Z,56.17
2018-05-02T06:59:09.231Z,56.17
2018-05-02T07:00:10.125Z,55.53
2018-05-02T07:01:09.193Z,55.21
2018-05-02T07:02:14.807Z,55.91
2018-05-02T07:03:09.468Z,55.34
2018-05-02T07:04:09.318Z,55.24
2018-05-02T07:05:09.127Z,55.53
2018-05-02T07:06:09.112Z,55.15
2018-05-02T07:07:09.144Z,54.38
2018-05-02T07:08:09.128Z,54.48
2018-05-02T07:09:09.061Z,53.53
2018-05-02T07:10:09.347Z,54.00
2018-05-02T07:11:09.128Z,54.38
2018-05-02T07:12:09.022Z,54.89
2018-05-02T07:13:08.992Z,54.60
2018-05-02T07:14:09.037Z,54.79
2018-05-02T07:15:08.983Z,53.93
2018-05-02T07:16:09.101Z,54.70
2018-05-02T07:17:09.244Z,54.03
2018-05-02T07:18:08.932Z,54.32
2018-05-02T07:19:08.909Z,54.99
2018-05-02T07:20:08.987Z,54.63
2018-05-02T07:21:08.874Z,53.96
2018-05-02T07:22:08.852Z,54.44
2018-05-02T07:23:08.840Z,53.29
2018-05-02T07:24:09.224Z,52.72
2018-05-02T07:25:08.867Z,52.46
2018-05-02T07:26:08.891Z,51.98
2018-05-02T07:27:08.776Z,50.95
2018-05-02T07:28:08.805Z,50.21
2018-05-02T07:29:08.737Z,49.38
2018-05-02T07:31:08.719Z,45.65
2018-05-02T07:32:08.746Z,46.12
2018-05-02T07:33:08.819Z,46.61
2018-05-02T07:34:08.665Z,46.36
2018-05-02T07:35:08.669Z,44.90
2018-05-02T07:36:08.936Z,45.29
2018-05-02T07:37:08.630Z,45.98
2018-05-02T07:38:08.762Z,44.47
2018-05-02T07:39:08.603Z,44.85
2018-05-02T07:40:08.581Z,44.40
2018-05-02T07:41:08.588Z,43.99
2018-05-02T07:42:08.932Z,43.95
2018-05-02T07:43:08.548Z,45.02
2018-05-02T07:44:08.584Z,45.02
2018-05-02T07:45:08.525Z,44.85
2018-05-02T07:46:08.500Z,43.41
2018-05-02T07:47:08.506Z,43.70
2018-05-02T07:48:08.779Z,43.23
2018-05-02T07:49:08.472Z,44.26
2018-05-02T07:50:08.497Z,44.66
2018-05-02T07:51:08.435Z,42.86
2018-05-02T07:52:08.501Z,42.86
2018-05-02T07:53:08.484Z,43.80
2018-05-02T07:54:08.707Z,43.51
2018-05-02T07:55:08.386Z,43.39
2018-05-02T07:56:08.441Z,43.90
2018-05-02T07:57:08.366Z,43.27
2018-05-02T07:58:08.537Z,44.12
2018-05-02T07:59:08.356Z,44.71
2018-05-02T08:00:08.631Z,44.40
2018-05-02T08:01:08.324Z,44.59
2018-05-02T08:02:08.305Z,45.62
2018-05-02T08:03:08.299Z,45.84
2018-05-02T08:04:08.287Z,45.55
2018-05-02T08:05:08.287Z,45.65
2018-05-02T08:06:08.571Z,46.20
2018-05-02T08:07:08.316Z,46.03
2018-05-02T08:08:08.257Z,46.12
2018-05-02T08:09:08.233Z,45.65
2018-05-02T08:10:08.215Z,45.84
2018-05-02T08:11:08.306Z,45.67
2018-05-02T08:12:08.249Z,45.04
2018-05-02T08:13:08.923Z,44.40
2018-05-02T08:14:08.177Z,44.13
2018-05-02T08:15:08.246Z,44.09
2018-05-02T08:16:08.157Z,43.97
2018-05-02T08:17:08.131Z,45.00
2018-05-02T08:18:08.133Z,46.44
2018-05-02T08:19:08.163Z,46.12
2018-05-02T08:20:08.400Z,46.51
2018-05-02T08:21:08.142Z,46.34
2018-05-02T08:22:08.278Z,46.31
2018-05-02T08:23:08.066Z,47.20
2018-05-02T08:24:08.151Z,46.36
2018-05-02T08:25:08.201Z,45.12
2018-05-02T08:26:08.044Z,44.93
2018-05-02T08:27:08.363Z,45.96
2018-05-02T08:28:08.015Z,46.96
2018-05-02T08:29:08.015Z,47.85
2018-05-02T08:30:08.025Z,47.75
2018-05-02T08:31:09.242Z,47.78
2018-05-02T08:32:08.041Z,47.49
2018-05-02T08:33:07.955Z,47.58
2018-05-02T08:34:08.260Z,47.47
2018-05-02T08:35:07.937Z,48.21
2018-05-02T08:36:07.925Z,49.33
2018-05-02T08:38:09.328Z,50.19
2018-05-02T08:39:07.898Z,50.48
2018-05-02T08:40:07.924Z,50.35
2018-05-02T08:41:08.176Z,51.31
2018-05-02T08:42:08.251Z,51.81
2018-05-02T08:43:07.853Z,51.15
2018-05-02T08:44:07.894Z,50.95
2018-05-02T08:45:07.838Z,50.38
2018-05-02T08:46:07.817Z,50.21
2018-05-02T08:47:07.821Z,49.57
2018-05-02T08:48:08.097Z,48.90
2018-05-02T08:49:07.775Z,48.71
2018-05-02T08:50:07.873Z,48.52
2018-05-02T08:51:07.826Z,48.61
2018-05-02T08:52:07.743Z,49.09
2018-05-02T08:54:08.021Z,48.07
2018-05-02T08:55:07.712Z,48.25
2018-05-02T08:56:07.752Z,47.78
2018-05-02T08:57:07.688Z,47.06
2018-05-02T08:58:07.679Z,45.62
2018-05-02T08:59:07.683Z,44.87
2018-05-02T09:00:07.955Z,44.40
2018-05-02T09:01:07.662Z,44.56
2018-05-02T09:02:07.688Z,45.36
2018-05-02T09:03:07.634Z,45.16
2018-05-02T09:04:07.614Z,44.97
2018-05-02T09:05:07.607Z,45.86
2018-05-02T09:06:07.897Z,47.78
2018-05-02T09:07:07.590Z,47.85
2018-05-02T09:08:07.641Z,47.94
2018-05-02T09:09:07.577Z,48.13
2018-05-02T09:10:07.560Z,47.94
2018-05-02T09:11:07.552Z,48.07
2018-05-02T09:12:07.955Z,47.39
2018-05-02T09:13:07.533Z,47.22
2018-05-02T09:14:07.583Z,46.22
2018-05-02T09:15:07.510Z,44.23
2018-05-02T09:16:07.500Z,43.57
2018-05-02T09:17:07.495Z,43.12
2018-05-02T09:18:07.780Z,41.77
2018-05-02T09:19:07.478Z,41.85
2018-05-02T09:21:07.517Z,44.01
2018-05-02T09:22:07.446Z,43.34
2018-05-02T09:23:07.437Z,43.91
2018-05-02T09:24:07.730Z,44.78
2018-05-02T09:25:07.431Z,44.59
2018-05-02T09:26:07.459Z,43.84
2018-05-02T09:27:07.401Z,43.00
2018-05-02T09:28:07.393Z,42.06
2018-05-02T09:29:07.389Z,42.33
2018-05-02T09:30:07.683Z,42.13
2018-05-02T09:31:07.370Z,42.52
2018-05-02T09:32:07.418Z,43.36
2018-05-02T09:33:07.349Z,42.90
2018-05-02T09:34:07.349Z,42.61
2018-05-02T09:35:07.337Z,43.19
2018-05-02T09:36:07.645Z,42.86
2018-05-02T09:37:07.320Z,43.46
2018-05-02T09:38:07.372Z,44.20
2018-05-02T09:39:07.315Z,44.87
2018-05-02T09:40:07.296Z,44.59
2018-05-02T09:41:07.287Z,44.30
2018-05-02T09:42:07.298Z,43.84
2018-05-02T09:43:07.575Z,43.36
2018-05-02T09:44:07.429Z,43.00
2018-05-02T09:45:07.269Z,41.87
2018-05-02T09:46:07.247Z,41.58
2018-05-02T09:47:07.240Z,41.70
2018-05-02T09:48:07.232Z,41.24
2018-05-02T09:49:07.225Z,40.11
2018-05-02T09:50:07.680Z,39.97
2018-05-02T09:51:07.224Z,40.20
2018-05-02T09:52:07.248Z,39.87
2018-05-02T09:53:07.200Z,40.81
2018-05-02T09:54:08.515Z,41.31
2018-05-02T09:55:07.190Z,40.20
2018-05-02T09:56:09.635Z,39.54
2018-05-02T09:57:07.468Z,38.37
2018-05-02T09:58:07.218Z,39.16
2018-05-02T09:59:08.469Z,38.68
2018-05-02T10:00:07.183Z,38.87
2018-05-02T10:01:07.149Z,38.84
2018-05-02T10:02:07.198Z,39.16
2018-05-02T10:03:07.134Z,38.59
2018-05-02T10:04:07.457Z,37.34
2018-05-02T10:05:07.125Z,37.91
2018-05-02T10:06:07.116Z,38.45
2018-05-02T10:07:07.112Z,39.03
2018-05-02T10:08:07.164Z,38.91
2018-05-02T10:09:07.113Z,40.06
2018-05-02T10:10:07.094Z,39.49
2018-05-02T10:11:07.391Z,38.76
2018-05-02T10:12:07.099Z,38.54
2018-05-02T10:13:07.080Z,38.72
2018-05-02T10:14:07.225Z,38.16
2018-05-02T10:15:07.072Z,37.62
2018-05-02T10:16:07.064Z,36.87
2018-05-02T10:17:07.122Z,37.37
2018-05-02T10:19:07.060Z,37.62
2018-05-02T10:20:07.098Z,37.43
2018-05-02T10:21:07.090Z,37.70
2018-05-02T10:22:07.047Z,38.51
2018-05-02T10:23:07.041Z,36.60
2018-05-02T10:24:07.040Z,36.61
2018-05-02T10:25:07.027Z,36.00
2018-05-02T10:26:07.080Z,37.43
2018-05-02T10:27:07.023Z,37.46
2018-05-02T10:28:07.021Z,36.56
2018-05-02T10:29:07.024Z,36.49
2018-05-02T10:30:07.215Z,36.18
2018-05-02T10:31:07.306Z,35.99
2018-05-02T10:32:07.057Z,36.56
2018-05-02T10:33:08.208Z,37.20
2018-05-02T10:34:07.215Z,37.51
2018-05-02T10:35:07.205Z,36.39
2018-05-02T10:36:07.199Z,35.49
2018-05-02T10:37:08.502Z,36.08
2018-05-02T10:38:07.093Z,36.85
2018-05-02T10:39:07.192Z,37.18
2018-05-02T10:40:07.287Z,36.37
2018-05-02T10:41:07.188Z,37.79
2018-05-02T10:42:06.986Z,38.35
2018-05-02T10:43:07.539Z,37.79
2018-05-02T10:44:08.274Z,37.87
2018-05-02T10:45:07.194Z,37.68
2018-05-02T10:46:08.392Z,37.60
2018-05-02T10:47:07.166Z,37.16
2018-05-02T10:48:06.970Z,35.81
2018-05-02T10:49:07.451Z,35.62
2018-05-02T10:50:07.010Z,35.65
2018-05-02T10:51:08.155Z,35.64
2018-05-02T10:52:07.161Z,34.17
2018-05-02T10:53:06.957Z,34.35
2018-05-02T10:54:08.139Z,34.16
2018-05-02T10:55:07.254Z,35.38
2018-05-02T10:56:06.990Z,36.07
2018-05-02T10:57:06.924Z,36.35
2018-05-02T10:58:07.128Z,35.60
2018-05-02T10:59:06.917Z,35.49
2018-05-02T11:00:06.926Z,36.08
2018-05-02T11:01:07.221Z,36.27
2018-05-02T11:02:07.057Z,35.56
2018-05-02T11:03:06.911Z,35.40
2018-05-02T11:04:06.899Z,33.45
2018-05-02T11:05:06.897Z,34.09
2018-05-02T11:06:06.900Z,34.11
2018-05-02T11:07:07.199Z,34.11
2018-05-02T11:08:06.964Z,34.78
2018-05-02T11:09:06.881Z,35.17
2018-05-02T11:10:06.892Z,34.11
2018-05-02T11:11:06.877Z,33.94
2018-05-02T11:12:06.876Z,33.82
2018-05-02T11:13:07.187Z,33.45
2018-05-02T11:14:06.920Z,33.15
2018-05-02T11:15:06.867Z,34.23
2018-05-02T11:16:06.881Z,36.83
2018-05-02T11:17:06.879Z,36.54
2018-05-02T11:18:06.855Z,37.70
2018-05-02T11:19:07.158Z,37.60
2018-05-02T11:20:07.269Z,37.74
2018-05-02T11:21:06.851Z,35.79
2018-05-02T11:22:07.009Z,35.99
2018-05-02T11:23:07.554Z,36.43
2018-05-02T11:24:06.843Z,37.39
2018-05-02T11:25:06.833Z,38.07
2018-05-02T11:26:07.279Z,38.26
2018-05-02T11:27:06.819Z,38.18
2018-05-02T11:28:06.832Z,37.43
2018-05-02T11:29:06.890Z,36.41
2018-05-02T11:30:06.804Z,35.81
2018-05-02T11:31:06.804Z,36.37
2018-05-02T11:32:06.921Z,37.16
2018-05-02T11:33:07.092Z,35.97
2018-05-02T11:34:06.792Z,36.47
2018-05-02T11:35:06.783Z,35.97
2018-05-02T11:36:06.782Z,36.62
2018-05-02T11:37:06.774Z,37.68
2018-05-02T11:38:06.824Z,38.35
2018-05-02T11:39:06.769Z,38.56
2018-05-02T11:40:07.066Z,38.10
2018-05-02T11:41:06.816Z,37.62
2018-05-02T11:42:06.755Z,37.16
2018-05-02T11:43:06.770Z,37.35
2018-05-02T11:44:06.791Z,36.85
2018-05-02T11:45:06.739Z,37.34
2018-05-02T11:46:06.739Z,37.14
2018-05-02T11:47:06.730Z,36.45
2018-05-02T11:48:06.717Z,36.82
2018-05-02T11:49:06.710Z,37.76
2018-05-02T11:50:06.819Z,37.66
2018-05-02T11:51:06.706Z,38.02
2018-05-02T11:52:06.696Z,38.45
2018-05-02T11:53:08.233Z,37.91
2018-05-02T11:54:06.757Z,36.95
2018-05-02T11:55:06.701Z,37.14
2018-05-02T11:56:06.676Z,37.79
2018-05-02T11:57:06.678Z,38.54
2018-05-02T11:58:06.668Z,38.93
2018-05-02T11:59:06.668Z,39.12
2018-05-02T12:00:06.663Z,38.76
2018-05-02T12:01:06.651Z,38.54
2018-05-02T12:02:06.646Z,38.66
2018-05-02T12:03:06.639Z,38.95
2018-05-02T12:04:06.633Z,38.37
2018-05-02T12:05:06.625Z,38.28
2018-05-02T12:06:06.982Z,37.97
2018-05-02T12:07:06.618Z,39.12
2018-05-02T12:08:06.608Z,38.93
2018-05-02T12:09:06.606Z,38.49
2018-05-02T12:10:06.613Z,38.09
2018-05-02T12:11:06.596Z,37.99
2018-05-02T12:12:08.032Z,38.01
2018-05-02T12:13:06.887Z,37.93
2018-05-02T12:14:06.582Z,37.43
2018-05-02T12:15:06.571Z,37.89
2018-05-02T12:16:06.575Z,37.97
2018-05-02T12:17:06.560Z,38.09
2018-05-02T12:18:07.010Z,38.66
2018-05-02T12:19:06.920Z,38.33
2018-05-02T12:20:06.545Z,36.77
2018-05-02T12:21:06.634Z,35.52
2018-05-02T12:22:06.544Z,36.64
2018-05-02T12:23:06.543Z,37.60
2018-05-02T12:24:06.693Z,37.39
2018-05-02T12:25:08.134Z,37.20
2018-05-02T12:26:06.518Z,37.97
2018-05-02T12:27:06.516Z,38.78
2018-05-02T12:28:06.498Z,37.72
2018-05-02T12:29:06.494Z,37.59
2018-05-02T12:30:06.638Z,37.97
2018-05-02T12:31:06.792Z,38.60
2018-05-02T12:32:06.566Z,38.81
2018-05-02T12:33:06.506Z,38.04
2018-05-02T12:34:06.503Z,38.22
2018-05-02T12:35:06.478Z,38.51
2018-05-02T12:36:06.706Z,39.11
2018-05-02T12:37:06.752Z,38.66
2018-05-02T12:38:06.450Z,37.70
2018-05-02T12:39:06.561Z,38.18
2018-05-02T12:40:06.453Z,37.79
2018-05-02T12:41:06.434Z,38.45
2018-05-02T12:42:06.422Z,39.04
2018-05-02T12:43:06.715Z,39.22
2018-05-02T12:44:06.420Z,39.04
2018-05-02T12:45:06.710Z,38.84
2018-05-02T12:46:06.409Z,39.20
2018-05-02T12:47:07.044Z,38.64
2018-05-02T12:48:08.186Z,37.99
2018-05-02T12:49:06.683Z,37.81
2018-05-02T12:50:07.575Z,37.54
2018-05-02T12:51:06.368Z,36.99
2018-05-02T12:52:07.068Z,35.81
2018-05-02T12:53:06.365Z,36.62
2018-05-02T12:54:06.447Z,38.34
2018-05-02T12:55:06.348Z,39.28
2018-05-02T12:56:06.365Z,40.23
2018-05-02T12:57:06.338Z,41.20
2018-05-02T12:58:06.335Z,40.89
2018-05-02T12:59:06.323Z,41.94
2018-05-02T13:00:06.367Z,40.99
2018-05-02T13:01:06.661Z,41.27